^^
Station Historical Data
Daily Summary for September 10, 2017 Units:  Metric    English   Both
« Previous Day
Next Day »
Daily Weekly Monthly Yearly Custom
  High: Low: Average:
Temperature: 33.2 °C 11.2 °C 18.1 °C
Dew Point: -0.5 °C -15.3 °C -5.6 °C
Humidity: 38% 4% 23%
Wind Speed: 22.7km/h 0km/h 1.4km/h
Wind Gust: 40.2km/h - -
Wind- - WSW
Pressure: 1015.1 hPa 1011.1 hPa -
Precipitation: 0 mm    
Historical Graphs
 
 
Tabular Data for September 10, 2017
Time Temperature Dew Point Pressure Wind Wind Speed Wind Gust Humidity Rainfall Rate (Hourly) solar Conditions
00:36 14.6 °C -4.2 °C 1012.8 hPa Calm     27% 0 mm 0.0 W/m2
00:41 14.6 °C -3.7 °C 1012.8 hPa Calm     28% 0 mm 0.0 W/m2
00:46 14.6 °C -4.2 °C 1012.8 hPa Calm     27% 0 mm 0.0 W/m2
00:52 14.5 °C -4.3 °C 1013.1 hPa Calm     27% 0 mm 0.0 W/m2
01:02 14.2 °C -3.6 °C 1013.1 hPa Calm     29% 0 mm 0.0 W/m2
01:07 14.1 °C -3.7 °C 1013.1 hPa Calm     29% 0 mm 0.0 W/m2
01:12 14.1 °C -3.7 °C 1013.1 hPa Calm     29% 0 mm 0.0 W/m2
01:17 14 °C -3.8 °C 1013.1 hPa Calm     29% 0 mm 0.0 W/m2
01:23 13.9 °C -3.9 °C 1013.1 hPa Calm     29% 0 mm 0.0 W/m2
01:28 13.8 °C -3.9 °C 1013.1 hPa Calm     29% 0 mm 0.0 W/m2
01:38 13.7 °C -4 °C 1013.1 hPa Calm     29% 0 mm 0.0 W/m2
01:43 13.5 °C -4.2 °C 1013.1 hPa Calm     29% 0 mm 0.0 W/m2
01:48 13.3 °C -4.4 °C 1013.1 hPa Calm     29% 0 mm 0.0 W/m2
01:53 13.1 °C -4.1 °C 1012.8 hPa Calm     30% 0 mm 0.0 W/m2
01:58 13 °C -4.6 °C 1012.8 hPa Calm     29% 0 mm 0.0 W/m2
02:03 13.1 °C -4.5 °C 1012.8 hPa Calm     29% 0 mm 0.0 W/m2
02:08 13.1 °C -4.5 °C 1012.8 hPa Calm     29% 0 mm 0.0 W/m2
02:14 13 °C -4.6 °C 1012.8 hPa Calm     29% 0 mm 0.0 W/m2
02:19 12.9 °C -4.7 °C 1012.8 hPa Calm     29% 0 mm 0.0 W/m2
02:24 12.8 °C -4.8 °C 1012.8 hPa Calm     29% 0 mm 0.0 W/m2
02:29 12.8 °C -4.8 °C 1012.8 hPa Calm     29% 0 mm 0.0 W/m2
02:34 12.7 °C -4.9 °C 1012.8 hPa Calm     29% 0 mm 0.0 W/m2
02:40 12.7 °C -4.9 °C 1012.8 hPa Calm     29% 0 mm 0.0 W/m2
02:45 12.6 °C -5 °C 1012.4 hPa Calm     29% 0 mm 0.0 W/m2
02:50 12.4 °C -5.2 °C 1012.4 hPa Calm     29% 0 mm 0.0 W/m2
02:55 12.3 °C -4.8 °C 1012.1 hPa Calm     30% 0 mm 0.0 W/m2
03:00 12.1 °C -5.4 °C 1012.1 hPa Calm     29% 0 mm 0.0 W/m2
03:06 11.8 °C -5.2 °C 1012.1 hPa Calm     30% 0 mm 0.0 W/m2
03:11 11.4 °C -4.7 °C 1011.7 hPa Calm     32% 0 mm 0.0 W/m2
03:16 11.4 °C -3.5 °C 1012.1 hPa Calm     35% 0 mm 0.0 W/m2
03:26 12.9 °C -1.1 °C 1012.1 hPa Calm     38% 0 mm 0.0 W/m2
03:31 13.8 °C -0.6 °C 1012.1 hPa Calm     37% 0 mm 0.0 W/m2
03:36 14.3 °C -1 °C 1011.7 hPa Calm     35% 0 mm 0.0 W/m2
03:41 14.3 °C -0.6 °C 1011.7 hPa Calm     36% 0 mm 0.0 W/m2
03:46 14.4 °C -0.9 °C 1011.7 hPa Calm     35% 0 mm 0.0 W/m2
03:51 14.3 °C -0.6 °C 1011.7 hPa Calm     36% 0 mm 0.0 W/m2
04:02 14.4 °C -1.7 °C 1012.1 hPa Calm     33% 0 mm 0.0 W/m2
04:07 14.5 °C -1.6 °C 1012.1 hPa Calm     33% 0 mm 0.0 W/m2
04:12 14.6 °C -1.9 °C 1011.7 hPa Calm     32% 0 mm 0.0 W/m2
04:17 14.6 °C -2.8 °C 1011.7 hPa Calm     30% 0 mm 0.0 W/m2
04:22 14.4 °C -3.4 °C 1011.7 hPa Calm     29% 0 mm 0.0 W/m2
04:28 14.2 °C -3.1 °C 1011.7 hPa Calm     30% 0 mm 0.0 W/m2
04:33 13.9 °C -3.9 °C 1012.1 hPa Calm     29% 0 mm 0.0 W/m2
04:38 13.7 °C -3.1 °C 1012.1 hPa Calm     31% 0 mm 0.0 W/m2
04:48 13.7 °C -4 °C 1012.4 hPa Calm     29% 0 mm 0.0 W/m2
04:58 13.7 °C -4 °C 1012.4 hPa Calm     29% 0 mm 0.0 W/m2
05:04 12.9 °C -4.7 °C 1012.8 hPa Calm     29% 0 mm 0.0 W/m2
05:09 12.7 °C -4.9 °C 1012.4 hPa Calm     29% 0 mm 0.0 W/m2
05:14 12.5 °C -5.1 °C 1012.8 hPa Calm     29% 0 mm 0.0 W/m2
05:19 12.3 °C -5.2 °C 1012.8 hPa Calm     29% 0 mm 0.0 W/m2
05:29 12.2 °C -5.3 °C 1012.8 hPa Calm     29% 0 mm 0.0 W/m2
05:39 12.1 °C -5.4 °C 1012.8 hPa Calm     29% 0 mm 0.0 W/m2
05:44 11.9 °C -5.6 °C 1012.8 hPa Calm     29% 0 mm 0.0 W/m2
05:49 11.9 °C -5.6 °C 1012.8 hPa Calm     29% 0 mm 0.0 W/m2
05:54 11.8 °C -5.7 °C 1012.8 hPa Calm     29% 0 mm 0.0 W/m2
05:59 11.6 °C -5.8 °C 1013.1 hPa Calm     29% 0 mm 0.0 W/m2
06:05 11.4 °C -6 °C 1013.1 hPa Calm     29% 0 mm 0.0 W/m2
06:12 11.4 °C -6 °C 1013.1 hPa Calm     29% 0 mm 0.0 W/m2
06:18 11.4 °C -6 °C 1013.1 hPa Calm     29% 0 mm 0.0 W/m2
06:21 11.2 °C -5.7 °C 1013.1 hPa Calm     30% 0 mm 0.0 W/m2
06:36 11.7 °C -5.8 °C 1013.1 hPa Calm     29% 0 mm 0.0 W/m2
06:56 12.2 °C -6.3 °C 1013.4 hPa Calm     27% 0 mm 5.0 W/m2
07:07 12.1 °C -6.3 °C 1013.4 hPa Calm     27% 0 mm 14.0 W/m2
07:22 12.1 °C -6.3 °C 1013.8 hPa Calm     27% 0 mm 37.0 W/m2
07:43 12.6 °C -6.4 °C 1014.1 hPa Calm     26% 0 mm 77.0 W/m2
07:53 13.9 °C -5.3 °C 1014.4 hPa Calm     26% 0 mm 128.0 W/m2
08:01 14.7 °C -5.7 °C 1014.4 hPa Calm     24% 0 mm 151.0 W/m2
08:14 15.3 °C -5.2 °C 1014.4 hPa Calm     24% 0 mm 181.0 W/m2
08:23 16.7 °C -4.5 °C 1014.4 hPa Calm     23% 0 mm 227.0 W/m2
08:39 18.3 °C -4.4 °C 1014.8 hPa Calm     21% 0 mm 287.0 W/m2
08:59 19.9 °C -3.7 °C 1014.8 hPa Calm     20% 0 mm 343.0 W/m2
09:04 20.8 °C -4.4 °C 1014.8 hPa Calm     18% 0 mm 366.0 W/m2
09:25 21.9 °C -3.5 °C 1014.8 hPa Calm     18% 0 mm 420.0 W/m2
09:35 23.4 °C -2.3 °C 1015.1 hPa SW 1.4 km/h 6.4 km/h 18% 0 mm 492.0 W/m2
09:50 23.9 °C -1.1 °C 1015.1 hPa Calm     19% 0 mm 522.0 W/m2
10:11 24.6 °C -2.1 °C 1014.8 hPa SW 7.9 km/h 9.7 km/h 17% 0 mm 571.0 W/m2
10:19 24.7 °C -0.5 °C 1014.4 hPa SW 1.4 km/h 9.7 km/h 19% 0 mm 591.0 W/m2
10:26 25.2 °C -1.6 °C 1014.8 hPa SW 9.7 km/h 12.9 km/h 17% 0 mm 612.0 W/m2
10:36 25.7 °C -2.9 °C 1014.8 hPa Calm   9.7 km/h 15% 0 mm 640.0 W/m2
10:51 26.4 °C -3.3 °C 1014.4 hPa SW 6.4 km/h 8 km/h 14% 0 mm 656.0 W/m2
11:00 26.7 °C -3 °C 1014.4 hPa Calm   8 km/h 14% 0 mm 671.0 W/m2
11:11 27 °C -2.8 °C 1014.4 hPa Calm     14% 0 mm 698.0 W/m2
11:23 27.3 °C -3.5 °C 1014.4 hPa Calm   14.5 km/h 13% 0 mm 661.0 W/m2
11:54 28.6 °C -4.8 °C 1013.8 hPa SW 7.9 km/h 9.7 km/h 11% 0 mm 752.0 W/m2
12:09 29.5 °C -6.7 °C 1013.8 hPa Calm     9% 0 mm 766.0 W/m2
13:10 31.1 °C -8.8 °C 1012.8 hPa SW 4.7 km/h 12.9 km/h 7% 0 mm 788.0 W/m2
13:25 31.4 °C -12.8 °C 1012.8 hPa SW 4.7 km/h 12.9 km/h 5% 0 mm 766.0 W/m2
13:41 31.7 °C -12.6 °C 1012.4 hPa SW 9.7 km/h 14.5 km/h 5% 0 mm 752.0 W/m2
13:56 31.7 °C -15.3 °C 1012.4 hPa WSW 9.7 km/h 12.9 km/h 4% 0 mm 749.0 W/m2
14:11 32 °C -15.1 °C 1012.1 hPa Calm     4% 0 mm 650.0 W/m2
14:26 32.2 °C -15 °C 1012.1 hPa WSW 7.9 km/h 14.5 km/h 4% 0 mm 700.0 W/m2
14:40 32.3 °C -14.9 °C 1011.7 hPa NNE 22.7 km/h 40.2 km/h 4% 0 mm 659.0 W/m2
14:51 32.3 °C -14.9 °C 1011.7 hPa Calm     4% 0 mm 633.0 W/m2
15:53 33.2 °C -14.3 °C 1011.1 hPa Calm   8 km/h 4% 0 mm 464.0 W/m2
16:53 32.8 °C -14.5 °C 1011.1 hPa NW 6.4 km/h 8 km/h 4% 0 mm 269.0 W/m2
17:02 32.9 °C -14.5 °C 1011.1 hPa Calm   6.4 km/h 4% 0 mm 250.0 W/m2
17:13 33.1 °C -14.3 °C 1011.1 hPa Calm     4% 0 mm 214.0 W/m2
17:52 32.3 °C -12.1 °C 1011.1 hPa NW 9.7 km/h 12.9 km/h 5% 0 mm 95.0 W/m2
18:37 29.5 °C -14.1 °C 1011.4 hPa NW 6.4 km/h 8 km/h 5% 0 mm 11.0 W/m2
19:03 27.3 °C -11.5 °C 1011.7 hPa NW 9.7 km/h 11.3 km/h 7% 0 mm 0.0 W/m2
19:33 26.4 °C -9 °C 1012.1 hPa NW 7.9 km/h 9.7 km/h 9% 0 mm 0.0 W/m2
20:19 25.1 °C -7.4 °C 1012.8 hPa NW 9.7 km/h 12.9 km/h 11% 0 mm 0.0 W/m2
20:35 24.4 °C -6.9 °C 1013.1 hPa NW 6.4 km/h 9.7 km/h 12% 0 mm 0.0 W/m2
21:23 22.3 °C -5.6 °C 1013.4 hPa Calm     15% 0 mm 0.0 W/m2
21:59 21.2 °C -5.6 °C 1013.4 hPa Calm     16% 0 mm 0.0 W/m2
22:10 20.8 °C -5.2 °C 1013.8 hPa Calm     17% 0 mm 0.0 W/m2
Canyon Roadhouse, Fishriver Canyon, Namibia
Compliments of Weather Underground - 2.25 mb